Latest Coastal Weather Observations for Hogan Island

IDT60701

Issued at 3:15 am EST Thursday 31 July 2014 (issued every 10 minutes, with the page automatically refreshed every 10 minutes)

About coastal observations | Map of coastal stations | Coastal observations for TAS | Marine services | Other Formats
Station Details ID: 200838 Name: HOGAN ISLAND Lat: -39.22 Lon: 146.98 Height: 116.0 m
Data from the previous 72 hours. | See also: Recent months at Hogan Island
Date/Time
EST
Temp

°C
Wind Pressure Rain
since 9am
mm
Weather Cloud Vis
km
Sea
Height
m
Swell
Dir
 
Speed
knots
Gust
knots
hPa Trend Height
m
Period
s
Dir
31/03:00am 14.4 NW 39 50 1000.3 - 1.0 - - - - - - -
31/02:38am 14.2 NW 36 46 1000.5 - 1.0 - - - - - - -
31/02:30am 14.3 NW 37 45 1000.8 - 1.0 - - - - - - -
31/02:04am 14.3 NW 37 48 1001.3 - 1.0 - - - - - - -
31/02:00am 14.2 NW 38 47 1001.3 - 1.0 - - - - - - -
31/01:30am 14.7 WNW 46 57 1001.1 - 1.0 - - - - - - -
31/01:14am 14.5 NW 39 50 1001.7 - 1.0 - - - - - - -
31/01:00am 14.4 WNW 40 46 1002.1 - 1.0 - - - - - - -
31/12:30am 14.5 WNW 37 49 1002.5 - 1.0 - - - - - - -
31/12:00am 14.5 NW 35 46 1003.0 - 1.0 - - - - - - -
 
Date/Time
EST
Temp

°C
Wind Pressure Rain
since 9am
mm
Weather Cloud Vis
km
Sea
Height
m
Swell
Dir
 
Speed
knots
Gust
knots
hPa Trend Height
m
Period
s
Dir
30/11:33pm 14.7 WNW 39 49 1003.3 - 1.0 - - - - - - -
30/11:30pm 14.4 WNW 38 45 1003.5 - 1.0 - - - - - - -
30/11:00pm 14.4 WNW 43 53 1003.5 - 1.0 - - - - - - -
30/10:58pm 14.5 WNW 43 53 1003.4 - 1.0 - - - - - - -
30/10:30pm 14.6 WNW 45 53 1003.3 - 1.0 - - - - - - -
30/10:10pm 14.6 WNW 40 51 1003.7 - 1.0 - - - - - - -
30/10:00pm 14.4 WNW 37 43 1004.2 - 1.0 - - - - - - -
30/09:30pm 14.3 WNW 39 45 1004.7 - 1.0 - - - - - - -
30/09:00pm 14.2 WNW 36 42 1005.0 - 1.0 - - - - - - -
30/08:30pm 14.2 WNW 37 47 1004.9 - 1.0 - - - - - - -
30/08:29pm 14.2 WNW 37 47 1004.8 - 1.0 - - - - - - -
30/08:00pm 13.4 WNW 35 42 1005.4 - 1.0 - - - - - - -
30/07:56pm 13.8 WNW 34 42 1005.3 - 1.0 - - - - - - -
30/07:30pm 13.4 WNW 27 31 1005.9 - 1.0 - - - - - - -
30/07:00pm 13.4 NW 25 32 1005.5 - 1.0 - - - - - - -
30/06:41pm 13.6 WNW 26 35 1005.9 - 1.0 - - - - - - -
30/06:30pm 13.7 WNW 37 43 1005.4 - 1.0 - - - - - - -
30/06:25pm 13.7 WNW 37 41 1005.3 - 1.0 - - - - - - -
30/06:00pm 13.2 NW 26 33 1005.8 - 1.0 - - - - - - -
30/05:30pm 13.2 WNW 34 39 1005.6 - 0.8 - - - - - - -
30/05:00pm 13.7 WNW 28 36 1005.3 - 0.0 - - - - - - -
30/04:41pm 14.1 WNW 33 43 1005.1 - 0.0 - - - - - - -
30/04:30pm 14.3 WNW 37 43 1004.8 - 0.0 - - - - - - -
30/04:19pm 14.4 NW 30 40 1004.9 - 0.0 - - - - - - -
30/04:00pm 14.4 WNW 38 45 1004.7 - 0.0 - - - - - - -
30/03:30pm 14.7 WNW 41 46 1004.5 - 0.0 - - - - - - -
30/03:00pm 14.8 WNW 39 48 1004.8 - 0.0 - - - - - - -
30/02:30pm 15.1 WNW 37 41 1005.1 - 0.0 - - - - - - -
30/02:00pm 14.6 WNW 36 41 1005.5 - 0.0 - - - - - - -
30/01:30pm 14.3 WNW 34 39 1005.6 - 0.0 - - - - - - -
30/01:00pm 14.7 WNW 38 44 1006.0 - 0.0 - - - - - - -
30/12:30pm 14.2 WNW 42 46 1006.0 - 0.0 - - - - - - -
30/12:00pm 14.3 WNW 41 47 1006.2 - 0.0 - - - - - - -
30/11:30am 14.2 WNW 42 49 1006.5 - 0.0 - - - - - - -
30/11:07am 14.2 WNW 39 49 1006.6 - 0.0 - - - - - - -
30/11:00am 14.0 WNW 37 44 1006.9 - 0.0 - - - - - - -
30/10:30am 13.5 WNW 37 41 1007.7 - 0.0 - - - - - - -
30/10:00am 13.3 WNW 38 43 1007.3 - 0.0 - - - - - - -
30/09:30am 12.9 WNW 40 45 1007.0 - 0.0 - - - - - - -
30/09:00am 12.5 WNW 37 42 1007.7 - 0.8 - - - - - - -
30/08:30am 12.1 WNW 36 41 1007.3 - 0.8 - - - - - - -
30/08:29am 12.1 WNW 36 41 1007.4 - 0.8 - - - - - - -
30/08:00am 12.0 NW 26 34 1007.7 - 0.8 - - - - - - -
30/07:30am 12.2 WNW 26 31 1007.9 - 0.8 - - - - - - -
30/07:02am 12.0 WNW 28 38 1007.2 - 0.8 - - - - - - -
30/07:00am 12.0 WNW 28 37 1007.2 - 0.8 - - - - - - -
30/06:46am 11.6 WNW 34 44 1006.7 - 0.8 - - - - - - -
30/06:30am 11.3 W 45 57 1006.3 - 0.8 - - - - - - -
30/06:25am 11.2 W 46 57 1006.3 - 0.8 - - - - - - -
30/06:22am 10.9 WNW 50 57 1005.9 - 0.8 - - - - - - -
30/06:20am 12.4 WNW 37 50 1006.3 - 0.8 - - - - - - -
30/06:00am 12.8 W 38 45 1006.3 - 0.8 - - - - - - -
30/05:30am 12.8 WNW 40 47 1005.9 - 0.8 - - - - - - -
30/05:00am 12.9 W 42 50 1005.6 - 0.8 - - - - - - -
30/04:30am 12.9 W 43 50 1005.6 - 0.8 - - - - - - -
30/04:00am 12.6 W 39 45 1005.8 - 0.8 - - - - - - -
30/03:51am 12.1 W 40 50 1005.6 - 0.8 - - - - - - -
30/03:30am 11.5 W 47 53 1005.1 - 0.8 - - - - - - -
30/03:20am 10.7 W 43 63 1005.3 - 0.8 - - - - - - -
30/03:13am 10.7 W 55 65 1005.0 - 0.8 - - - - - - -
30/03:09am 10.5 W 57 65 1004.4 - 0.2 - - - - - - -
30/03:08am 11.8 W 43 65 1004.7 - 0.2 - - - - - - -
30/03:01am 12.9 WNW 40 51 1005.3 - 0.2 - - - - - - -
30/03:00am 12.9 WNW 39 47 1005.4 - 0.2 - - - - - - -
30/02:41am 13.1 WNW 43 54 1004.8 - 0.2 - - - - - - -
30/02:30am 13.2 WNW 44 51 1004.8 - 0.2 - - - - - - -
30/02:00am 13.3 WNW 48 58 1004.0 - 0.2 - - - - - - -
30/01:33am 13.3 WNW 40 50 1004.5 - 0.2 - - - - - - -
30/01:30am 13.2 WNW 41 50 1004.4 - 0.2 - - - - - - -
30/01:07am 12.9 WNW 42 52 1004.1 - 0.2 - - - - - - -
30/01:00am 12.9 WNW 44 53 1004.0 - 0.2 - - - - - - -
30/12:30am 13.8 WNW 45 55 1003.7 - 0.2 - - - - - - -
30/12:00am 13.7 WNW 44 55 1003.6 - 0.2 - - - - - - -
 
Date/Time
EST
Temp

°C
Wind Pressure Rain
since 9am
mm
Weather Cloud Vis
km
Sea
Height
m
Swell
Dir
 
Speed
knots
Gust
knots
hPa Trend Height
m
Period
s
Dir
29/11:30pm 13.6 WNW 46 56 1003.5 - 0.2 - - - - - - -
29/11:00pm 13.8 WNW 47 57 1003.8 - 0.2 - - - - - - -
29/10:35pm 13.5 WNW 42 52 1003.6 - 0.2 - - - - - - -
29/10:30pm 13.2 WNW 43 51 1004.0 - 0.2 - - - - - - -
29/10:01pm 13.3 WNW 50 62 1002.6 - 0.2 - - - - - - -
29/10:00pm 13.3 WNW 50 59 1002.8 - 0.2 - - - - - - -
29/09:55pm 13.4 WNW 49 59 1002.8 - 0.2 - - - - - - -
29/09:43pm 13.1 WNW 54 59 1002.3 - 0.2 - - - - - - -
29/09:31pm 12.2 WNW 43 53 1002.7 - 0.2 - - - - - - -
29/09:30pm 12.1 WNW 43 52 1002.8 - 0.2 - - - - - - -
29/09:00pm 12.7 WNW 46 55 1002.5 - 0.0 - - - - - - -
29/08:48pm 13.8 WNW 53 69 1001.1 - 0.0 - - - - - - -
29/08:30pm 13.3 WNW 48 59 1001.8 - 0.0 - - - - - - -
29/08:17pm 13.5 WNW 51 61 1000.9 - 0.0 - - - - - - -
29/08:00pm 13.2 WNW 52 59 1001.1 - 0.0 - - - - - - -
29/07:30pm 12.8 WNW 52 62 1001.0 - 0.0 - - - - - - -
29/07:00pm 13.2 WNW 50 60 1000.5 - 0.0 - - - - - - -
29/06:32pm 13.1 WNW 49 59 1000.3 - 0.0 - - - - - - -
29/06:30pm 13.0 WNW 49 58 1000.5 - 0.0 - - - - - - -
29/06:00pm 13.1 WNW 53 64 999.9 - 0.0 - - - - - - -
29/05:30pm 13.6 WNW 50 61 999.5 - 0.0 - - - - - - -
29/05:01pm 13.3 WNW 52 62 999.7 - 0.0 - - - - - - -
29/05:00pm 13.4 WNW 53 62 999.7 - 0.0 - - - - - - -
29/04:30pm 13.2 WNW 52 62 999.3 - 0.0 - - - - - - -
29/04:06pm 13.4 WNW 50 61 999.3 - 0.0 - - - - - - -
29/04:00pm 13.6 WNW 51 59 999.9 - 0.0 - - - - - - -
29/03:30pm 13.8 WNW 50 58 999.8 - 0.0 - - - - - - -
29/03:00pm 13.9 WNW 49 60 999.7 - 0.0 - - - - - - -
29/02:30pm 14.0 WNW 44 55 999.7 - 0.0 - - - - - - -
29/02:00pm 14.3 WNW 44 55 1000.0 - 0.0 - - - - - - -
29/01:30pm 14.1 WNW 43 57 999.8 - 0.0 - - - - - - -
29/01:10pm 13.9 WNW 44 54 1000.2 - 0.0 - - - - - - -
29/01:00pm 14.0 WNW 45 54 1000.3 - 0.0 - - - - - - -
29/12:30pm 14.0 WNW 44 56 1000.8 - 0.0 - - - - - - -
29/12:00pm 13.8 WNW 39 49 1002.0 - 0.0 - - - - - - -
29/11:57am 13.7 WNW 39 49 1002.1 - 0.0 - - - - - - -
29/11:30am 13.7 WNW 41 49 1002.6 - 0.0 - - - - - - -
29/11:00am 14.0 WNW 45 55 1002.5 - 0.0 - - - - - - -
29/10:34am 13.8 WNW 42 52 1002.4 - 0.0 - - - - - - -
29/10:30am 13.8 WNW 41 49 1002.7 - 0.0 - - - - - - -
29/10:03am 13.8 WNW 45 55 1002.8 - 0.0 - - - - - - -
29/10:00am 13.9 WNW 47 55 1002.5 - 0.0 - - - - - - -
29/09:33am 13.6 WNW 44 54 1002.8 - 0.0 - - - - - - -
29/09:30am 13.6 WNW 44 52 1003.0 - 0.0 - - - - - - -
29/09:10am 12.8 WNW 43 53 1003.3 - 0.0 - - - - - - -
29/09:00am 12.4 WNW 48 57 1003.4 - 0.0 - - - - - - -
29/08:36am 13.5 WNW 46 57 1003.2 - 0.0 - - - - - - -
29/08:30am 13.5 WNW 47 55 1003.3 - 0.0 - - - - - - -
29/08:15am 13.4 WNW 48 58 1003.0 - 0.0 - - - - - - -
29/08:00am 13.5 WNW 45 51 1003.2 - 0.0 - - - - - - -
29/07:43am 13.3 WNW 42 52 1003.6 - 0.0 - - - - - - -
29/07:30am 13.4 WNW 42 51 1003.6 - 0.0 - - - - - - -
29/07:15am 13.3 WNW 40 50 1003.7 - 0.0 - - - - - - -
29/07:00am 13.4 WNW 41 49 1003.6 - 0.0 - - - - - - -
29/06:30am 13.2 WNW 39 48 1004.1 - 0.0 - - - - - - -
29/06:03am 13.2 WNW 35 45 1004.1 - 0.0 - - - - - - -
29/06:00am 13.2 WNW 35 41 1004.3 - 0.0 - - - - - - -
29/05:30am 13.0 WNW 38 43 1004.5 - 0.0 - - - - - - -
29/05:00am 13.0 WNW 36 41 1004.8 - 0.0 - - - - - - -
29/04:40am 13.0 WNW 35 45 1004.6 - 0.0 - - - - - - -
29/04:30am 12.9 WNW 33 39 1005.0 - 0.0 - - - - - - -
29/04:00am 13.0 WNW 32 39 1005.4 - 0.0 - - - - - - -
29/03:30am 12.8 NW 29 38 1005.6 - 0.0 - - - - - - -
29/03:13am 12.8 NW 31 41 1005.8 - 0.0 - - - - - - -
29/03:00am 12.9 NW 31 38 1006.1 - 0.0 - - - - - - -
29/02:30am 13.2 WNW 35 42 1006.2 - 0.0 - - - - - - -
29/02:00am 13.2 WNW 33 39 1006.9 - 0.0 - - - - - - -
29/01:30am 13.2 WNW 34 41 1007.2 - 0.0 - - - - - - -
29/01:00am 13.4 WNW 34 42 1007.5 - 0.0 - - - - - - -
29/12:30am 13.5 WNW 37 43 1007.7 - 0.0 - - - - - - -
29/12:00am 13.6 WNW 36 42 1008.0 - 0.0 - - - - - - -
 
Date/Time
EST
Temp

°C
Wind Pressure Rain
since 9am
mm
Weather Cloud Vis
km
Sea
Height
m
Swell
Dir
 
Speed
knots
Gust
knots
hPa Trend Height
m
Period
s
Dir
28/11:30pm 13.3 WNW 36 41 1008.3 - 0.0 - - - - - - -
28/11:00pm 13.4 WNW 36 42 1008.4 - 0.0 - - - - - - -
28/10:30pm 13.6 WNW 36 41 1008.6 - 0.0 - - - - - - -
28/10:00pm 13.5 WNW 33 40 1008.8 - 0.0 - - - - - - -
28/09:30pm 13.3 NW 30 38 1009.4 - 0.0 - - - - - - -
28/09:28pm 13.3 WNW 31 41 1009.3 - 0.0 - - - - - - -
28/09:00pm 13.4 WNW 34 41 1009.3 - 0.0 - - - - - - -
28/08:30pm 13.2 WNW 26 32 1009.5 - 0.0 - - - - - - -
28/08:00pm 13.5 WNW 32 36 1009.2 - 0.0 - - - - - - -
28/07:30pm 13.8 WNW 32 37 1009.0 - 0.0 - - - - - - -
28/07:00pm 13.9 WNW 30 36 1009.0 - 0.0 - - - - - - -
28/06:30pm 14.2 WNW 27 32 1009.5 - 0.0 - - - - - - -
28/06:22pm 14.4 WNW 29 32 1009.5 - 0.0 - - - - - - -
28/06:00pm 13.6 WNW 16 21 1009.9 - 0.0 - - - - - - -
28/05:30pm 13.5 NW 14 18 1009.5 - 0.0 - - - - - - -
28/05:00pm 14.2 WNW 16 19 1009.8 - 0.0 - - - - - - -
28/04:30pm 14.5 WNW 18 20 1009.8 - 0.0 - - - - - - -
28/04:00pm 14.8 WNW 13 17 1010.0 - 0.0 - - - - - - -
28/03:30pm 15.2 WNW 13 16 1010.2 - 0.0 - - - - - - -
28/03:00pm 15.5 WNW 15 18 1010.4 - 0.0 - - - - - - -
28/02:30pm 15.2 WNW 20 23 1010.3 - 0.0 - - - - - - -
28/02:00pm 15.7 WNW 20 23 1010.3 - 0.0 - - - - - - -
28/01:30pm 15.6 WNW 12 15 1011.0 - 0.0 - - - - - - -
28/01:00pm 15.5 NW 15 19 1011.3 - 0.0 - - - - - - -
28/12:30pm 15.4 NW 20 25 1011.7 - 0.0 - - - - - - -
28/12:00pm 15.2 NW 23 29 1012.1 - 0.0 - - - - - - -
28/11:30am 14.8 NW 23 31 1012.2 - 0.0 - - - - - - -
28/11:25am 14.7 NW 23 33 1012.3 - 0.0 - - - - - - -
28/11:00am 14.1 NW 23 29 1012.5 - 0.0 - - - - - - -
28/10:30am 13.9 WNW 26 33 1012.7 - 0.0 - - - - - - -
28/10:00am 13.7 NW 26 31 1012.8 - 0.0 - - - - - - -
28/09:30am 13.6 WNW 28 34 1012.6 - 0.0 - - - - - - -
28/09:00am 12.8 NW 24 29 1013.0 - 0.0 - - - - - - -
28/08:30am 13.0 NW 26 33 1013.1 - 0.0 - - - - - - -
28/08:00am 12.8 NW 27 34 1013.4 - 0.0 - - - - - - -
28/07:30am 12.7 NW 28 34 1013.4 - 0.0 - - - - - - -
28/07:00am 12.7 NW 27 37 1013.3 - 0.0 - - - - - - -
28/06:30am 12.6 WNW 30 35 1013.0 - 0.0 - - - - - - -
28/06:00am 12.9 WNW 37 43 1012.8 - 0.0 - - - - - - -
28/05:30am 12.9 WNW 36 43 1012.7 - 0.0 - - - - - - -
28/05:00am 13.0 WNW 36 41 1012.5 - 0.0 - - - - - - -
28/04:30am 12.6 NW 27 36 1013.4 - 0.0 - - - - - - -
28/04:28am 12.7 NW 26 36 1013.4 - 0.0 - - - - - - -
28/04:00am 12.6 WNW 28 35 1013.8 - 0.0 - - - - - - -
28/03:30am 12.6 NW 25 33 1014.2 - 0.0 - - - - - - -

Other Formats:

Comma delimited format used in spreadsheet applications
http://www.bom.gov.au/fwo/IDT60701/IDT60701.94949.axf

JavaScript Object Notation format (JSON) in row-major order
http://www.bom.gov.au/fwo/IDT60701/IDT60701.94949.json